sensor_id;sensor_type;location;lat;lon;timestamp;pressure;altitude;pressure_sealevel;temperature;humidity
79463;BME280;68931;47.286;18.756;2023-09-12T00:00:33;100398.69;;;15.57;84.07
79463;BME280;68931;47.286;18.756;2023-09-12T00:01:06;100413.81;;;15.66;83.94
79463;BME280;68931;47.286;18.756;2023-09-12T00:01:38;100412.84;;;15.67;84.17
79463;BME280;68931;47.286;18.756;2023-09-12T00:02:13;100421.63;;;15.68;83.91
79463;BME280;68931;47.286;18.756;2023-09-12T00:02:45;100412.97;;;15.66;84.10
79463;BME280;68931;47.286;18.756;2023-09-12T00:03:21;100410.47;;;15.64;84.24
79463;BME280;68931;47.286;18.756;2023-09-12T00:03:54;100412.16;;;15.65;84.07
79463;BME280;68931;47.286;18.756;2023-09-12T00:04:26;100400.34;;;15.58;84.35
79463;BME280;68931;47.286;18.756;2023-09-12T00:04:58;100413.34;;;15.61;84.45
79463;BME280;68931;47.286;18.756;2023-09-12T00:05:30;100419.38;;;15.63;84.37
79463;BME280;68931;47.286;18.756;2023-09-12T00:06:02;100411.09;;;15.57;84.48
79463;BME280;68931;47.286;18.756;2023-09-12T00:06:38;100417.34;;;15.56;84.76
79463;BME280;68931;47.286;18.756;2023-09-12T00:07:10;100401.56;;;15.43;84.72
79463;BME280;68931;47.286;18.756;2023-09-12T00:07:42;100410.22;;;15.45;84.71
79463;BME280;68931;47.286;18.756;2023-09-12T00:08:14;100411.28;;;15.42;84.75
79463;BME280;68931;47.286;18.756;2023-09-12T00:08:46;100424.84;;;15.49;84.50
79463;BME280;68931;47.286;18.756;2023-09-12T00:09:19;100397.59;;;15.37;84.83
79463;BME280;68931;47.286;18.756;2023-09-12T00:09:51;100421.38;;;15.49;84.88
79463;BME280;68931;47.286;18.756;2023-09-12T00:10:23;100404.44;;;15.40;85.21
79463;BME280;68931;47.286;18.756;2023-09-12T00:11:08;100403.97;;;15.35;85.24
79463;BME280;68931;47.286;18.756;2023-09-12T00:11:46;100416.56;;;15.42;85.26
79463;BME280;68931;47.286;18.756;2023-09-12T00:12:23;100424.03;;;15.37;85.45
79463;BME280;68931;47.286;18.756;2023-09-12T00:12:56;100411.28;;;15.31;85.44
79463;BME280;68931;47.286;18.756;2023-09-12T00:13:28;100399.28;;;15.27;85.58
79463;BME280;68931;47.286;18.756;2023-09-12T00:14:01;100398.56;;;15.25;85.44
79463;BME280;68931;47.286;18.756;2023-09-12T00:14:36;100410.94;;;15.36;85.25
79463;BME280;68931;47.286;18.756;2023-09-12T00:15:08;100402.78;;;15.28;85.55
79463;BME280;68931;47.286;18.756;2023-09-12T00:15:43;100411.16;;;15.33;85.63
79463;BME280;68931;47.286;18.756;2023-09-12T00:16:15;100407.78;;;15.31;85.98
79463;BME280;68931;47.286;18.756;2023-09-12T00:16:47;100380.88;;;15.15;85.85
79463;BME280;68931;47.286;18.756;2023-09-12T00:17:19;100396.97;;;15.23;85.48
79463;BME280;68931;47.286;18.756;2023-09-12T00:17:51;100412.84;;;15.34;85.65
79463;BME280;68931;47.286;18.756;2023-09-12T00:18:26;100418.75;;;15.37;85.50
79463;BME280;68931;47.286;18.756;2023-09-12T00:18:58;100378.38;;;15.13;85.48
79463;BME280;68931;47.286;18.756;2023-09-12T00:19:33;100412.97;;;15.32;85.66
79463;BME280;68931;47.286;18.756;2023-09-12T00:20:05;100406.97;;;15.30;85.70
79463;BME280;68931;47.286;18.756;2023-09-12T00:20:39;100415.38;;;15.35;85.60
79463;BME280;68931;47.286;18.756;2023-09-12T00:21:11;100394.34;;;15.23;85.72
79463;BME280;68931;47.286;18.756;2023-09-12T00:21:43;100402.88;;;15.26;85.42
79463;BME280;68931;47.286;18.756;2023-09-12T00:22:15;100411.28;;;15.31;85.84
79463;BME280;68931;47.286;18.756;2023-09-12T00:22:47;100390.16;;;15.20;85.85
79463;BME280;68931;47.286;18.756;2023-09-12T00:23:21;100388.72;;;15.16;85.87
79463;BME280;68931;47.286;18.756;2023-09-12T00:23:54;100408.66;;;15.20;85.79
79463;BME280;68931;47.286;18.756;2023-09-12T00:24:25;100411.03;;;15.23;86.00
79463;BME280;68931;47.286;18.756;2023-09-12T00:24:57;100410.94;;;15.25;86.38
79463;BME280;68931;47.286;18.756;2023-09-12T00:25:29;100415.25;;;15.26;86.39
79463;BME280;68931;47.286;18.756;2023-09-12T00:26:01;100407.22;;;15.27;86.24
79463;BME280;68931;47.286;18.756;2023-09-12T00:26:35;100403.22;;;15.22;86.44
79463;BME280;68931;47.286;18.756;2023-09-12T00:27:07;100411.53;;;15.28;86.36
79463;BME280;68931;47.286;18.756;2023-09-12T00:27:39;100396.88;;;15.24;86.06
79463;BME280;68931;47.286;18.756;2023-09-12T00:28:11;100409.13;;;15.25;86.45
79463;BME280;68931;47.286;18.756;2023-09-12T00:28:43;100383.91;;;15.10;86.87
79463;BME280;68931;47.286;18.756;2023-09-12T00:29:15;100402.03;;;15.15;86.93
79463;BME280;68931;47.286;18.756;2023-09-12T00:29:47;100386.19;;;15.03;87.00
79463;BME280;68931;47.286;18.756;2023-09-12T00:30:19;100395.56;;;15.07;86.69
79463;BME280;68931;47.286;18.756;2023-09-12T00:30:52;100408.88;;;15.17;86.79
79463;BME280;68931;47.286;18.756;2023-09-12T00:31:24;100409.63;;;15.19;86.26
79463;BME280;68931;47.286;18.756;2023-09-12T00:31:56;100407.34;;;15.26;86.45
79463;BME280;68931;47.286;18.756;2023-09-12T00:32:28;100416.09;;;15.26;86.24
79463;BME280;68931;47.286;18.756;2023-09-12T00:33:00;100408.91;;;15.28;85.87
79463;BME280;68931;47.286;18.756;2023-09-12T00:33:32;100414.19;;;15.28;85.84
79463;BME280;68931;47.286;18.756;2023-09-12T00:34:07;100398.78;;;15.22;85.85
79463;BME280;68931;47.286;18.756;2023-09-12T00:34:39;100411.44;;;15.30;85.49
79463;BME280;68931;47.286;18.756;2023-09-12T00:35:11;100409.25;;;15.24;85.36
79463;BME280;68931;47.286;18.756;2023-09-12T00:35:44;100412.25;;;15.30;85.50
79463;BME280;68931;47.286;18.756;2023-09-12T00:36:16;100390.28;;;15.19;85.81
79463;BME280;68931;47.286;18.756;2023-09-12T00:36:48;100420.44;;;15.27;85.52
79463;BME280;68931;47.286;18.756;2023-09-12T00:37:26;100416.72;;;15.30;85.87
79463;BME280;68931;47.286;18.756;2023-09-12T00:37:58;100417.53;;;15.30;86.06
79463;BME280;68931;47.286;18.756;2023-09-12T00:38:31;100400.84;;;15.19;85.88
79463;BME280;68931;47.286;18.756;2023-09-12T00:39:03;100407.72;;;15.21;85.52
79463;BME280;68931;47.286;18.756;2023-09-12T00:39:35;100411.03;;;15.23;85.82
79463;BME280;68931;47.286;18.756;2023-09-12T00:40:07;100416.84;;;15.28;85.54
79463;BME280;68931;47.286;18.756;2023-09-12T00:40:39;100417.69;;;15.29;86.02
79463;BME280;68931;47.286;18.756;2023-09-12T00:41:14;100403.22;;;15.22;85.62
79463;BME280;68931;47.286;18.756;2023-09-12T00:41:46;100410.19;;;15.23;85.43
79463;BME280;68931;47.286;18.756;2023-09-12T00:42:21;100413.81;;;15.22;85.44
79463;BME280;68931;47.286;18.756;2023-09-12T00:42:56;100417.69;;;15.29;85.66
79463;BME280;68931;47.286;18.756;2023-09-12T00:43:30;100419.59;;;15.27;85.25
79463;BME280;68931;47.286;18.756;2023-09-12T00:44:03;100416.44;;;15.22;85.79
79463;BME280;68931;47.286;18.756;2023-09-12T00:44:38;100413.00;;;15.21;85.80
79463;BME280;68931;47.286;18.756;2023-09-12T00:45:10;100400.72;;;15.09;86.08
79463;BME280;68931;47.286;18.756;2023-09-12T00:45:42;100420.19;;;15.19;85.77
79463;BME280;68931;47.286;18.756;2023-09-12T00:46:18;100408.88;;;15.17;85.91
79463;BME280;68931;47.286;18.756;2023-09-12T00:46:54;100403.38;;;15.09;85.79
79463;BME280;68931;47.286;18.756;2023-09-12T00:47:28;100416.09;;;15.15;85.78
79463;BME280;68931;47.286;18.756;2023-09-12T00:48:03;100383.91;;;14.99;85.99
79463;BME280;68931;47.286;18.756;2023-09-12T00:48:38;100418.50;;;15.18;86.00
79463;BME280;68931;47.286;18.756;2023-09-12T00:49:11;100431.00;;;15.16;86.22
79463;BME280;68931;47.286;18.756;2023-09-12T00:49:45;100402.06;;;15.03;86.03
79463;BME280;68931;47.286;18.756;2023-09-12T00:50:23;100397.09;;;14.99;86.02
79463;BME280;68931;47.286;18.756;2023-09-12T00:51:00;100419.34;;;15.07;86.15
79463;BME280;68931;47.286;18.756;2023-09-12T00:51:34;100423.88;;;15.05;86.01
79463;BME280;68931;47.286;18.756;2023-09-12T00:52:08;100414.88;;;14.97;86.36
79463;BME280;68931;47.286;18.756;2023-09-12T00:52:40;100413.81;;;14.99;86.49
79463;BME280;68931;47.286;18.756;2023-09-12T00:53:15;100414.88;;;14.97;86.56
79463;BME280;68931;47.286;18.756;2023-09-12T00:53:48;100416.81;;;14.95;86.34
79463;BME280;68931;47.286;18.756;2023-09-12T00:54:20;100415.13;;;14.94;86.81
79463;BME280;68931;47.286;18.756;2023-09-12T00:54:53;100425.31;;;14.98;86.79
79463;BME280;68931;47.286;18.756;2023-09-12T00:55:28;100414.28;;;14.93;86.98
79463;BME280;68931;47.286;18.756;2023-09-12T00:56:01;100415.56;;;14.88;87.02
79463;BME280;68931;47.286;18.756;2023-09-12T00:56:34;100391.91;;;14.75;86.66
79463;BME280;68931;47.286;18.756;2023-09-12T00:57:07;100414.50;;;14.90;86.86
79463;BME280;68931;47.286;18.756;2023-09-12T00:57:43;100421.47;;;14.91;87.11
79463;BME280;68931;47.286;18.756;2023-09-12T00:58:16;100432.03;;;14.91;87.59
79463;BME280;68931;47.286;18.756;2023-09-12T00:58:48;100410.41;;;14.75;87.51
79463;BME280;68931;47.286;18.756;2023-09-12T00:59:22;100422.28;;;14.81;87.25
79463;BME280;68931;47.286;18.756;2023-09-12T00:59:55;100428.88;;;14.75;87.35
79463;BME280;68931;47.286;18.756;2023-09-12T01:00:28;100418.06;;;14.67;87.39
79463;BME280;68931;47.286;18.756;2023-09-12T01:01:02;100432.81;;;14.69;87.54
79463;BME280;68931;47.286;18.756;2023-09-12T01:01:34;100410.84;;;14.58;87.43
79463;BME280;68931;47.286;18.756;2023-09-12T01:02:06;100429.47;;;14.67;87.53
79463;BME280;68931;47.286;18.756;2023-09-12T01:02:42;100428.06;;;14.75;87.59
79463;BME280;68931;47.286;18.756;2023-09-12T01:03:16;100434.06;;;14.77;87.58
79463;BME280;68931;47.286;18.756;2023-09-12T01:03:48;100412.53;;;14.70;87.66
79463;BME280;68931;47.286;18.756;2023-09-12T01:04:21;100418.66;;;14.71;87.83
79463;BME280;68931;47.286;18.756;2023-09-12T01:05:06;100421.88;;;14.63;87.66
79463;BME280;68931;47.286;18.756;2023-09-12T01:05:41;100419.59;;;14.58;88.15
79463;BME280;68931;47.286;18.756;2023-09-12T01:06:16;100429.34;;;14.69;88.08
79463;BME280;68931;47.286;18.756;2023-09-12T01:06:51;100395.59;;;14.50;88.08
79463;BME280;68931;47.286;18.756;2023-09-12T01:07:24;100421.88;;;14.63;87.80
79463;BME280;68931;47.286;18.756;2023-09-12T01:08:00;100427.44;;;14.71;87.96
79463;BME280;68931;47.286;18.756;2023-09-12T01:10:26;100401.44;;;14.54;87.73
79463;BME280;68931;47.286;18.756;2023-09-12T01:10:59;100408.19;;;14.58;87.35
79463;BME280;68931;47.286;18.756;2023-09-12T01:11:31;100417.97;;;14.68;87.32
79463;BME280;68931;47.286;18.756;2023-09-12T01:12:03;100419.75;;;14.68;87.28
79463;BME280;68931;47.286;18.756;2023-09-12T01:12:36;100420.22;;;14.73;87.33
79463;BME280;68931;47.286;18.756;2023-09-12T01:13:12;100426.72;;;14.80;87.39
79463;BME280;68931;47.286;18.756;2023-09-12T01:13:44;100422.28;;;14.81;87.32
79463;BME280;68931;47.286;18.756;2023-09-12T01:14:16;100431.78;;;14.83;87.02
79463;BME280;68931;47.286;18.756;2023-09-12T01:14:48;100424.94;;;14.81;86.97
79463;BME280;68931;47.286;18.756;2023-09-12T01:15:20;100420.00;;;14.76;87.08
79463;BME280;68931;47.286;18.756;2023-09-12T01:15:52;100417.59;;;14.73;87.10
79463;BME280;68931;47.286;18.756;2023-09-12T01:16:24;100428.78;;;14.77;87.26
79463;BME280;68931;47.286;18.756;2023-09-12T01:16:57;100404.97;;;14.65;87.64
79463;BME280;68931;47.286;18.756;2023-09-12T01:17:30;100402.66;;;14.61;87.52
79463;BME280;68931;47.286;18.756;2023-09-12T01:18:02;100417.97;;;14.68;87.43
79463;BME280;68931;47.286;18.756;2023-09-12T01:18:37;100419.25;;;14.63;87.26
79463;BME280;68931;47.286;18.756;2023-09-12T01:19:12;100419.97;;;14.65;87.19
79463;BME280;68931;47.286;18.756;2023-09-12T01:19:49;100428.53;;;14.68;86.94
79463;BME280;68931;47.286;18.756;2023-09-12T01:20:31;100421.88;;;14.63;87.08
79463;BME280;68931;47.286;18.756;2023-09-12T01:24:45;100426.22;;;14.64;87.90
79463;BME280;68931;47.286;18.756;2023-09-12T01:26:54;100428.28;;;14.72;87.07
79463;BME280;68931;47.286;18.756;2023-09-12T01:27:30;100413.00;;;14.64;87.06
79463;BME280;68931;47.286;18.756;2023-09-12T01:28:07;100423.59;;;14.75;86.88
79463;BME280;68931;47.286;18.756;2023-09-12T01:28:43;100420.34;;;14.72;86.90
79463;BME280;68931;47.286;18.756;2023-09-12T01:29:21;100390.16;;;14.52;86.77
79463;BME280;68931;47.286;18.756;2023-09-12T01:29:57;100420.13;;;14.75;86.65
79463;BME280;68931;47.286;18.756;2023-09-12T01:30:32;100413.38;;;14.71;86.48
79463;BME280;68931;47.286;18.756;2023-09-12T01:31:05;100416.13;;;14.69;86.57
79463;BME280;68931;47.286;18.756;2023-09-12T01:31:37;100400.75;;;14.63;86.69
79463;BME280;68931;47.286;18.756;2023-09-12T01:32:13;100415.06;;;14.72;86.78
79463;BME280;68931;47.286;18.756;2023-09-12T01:32:46;100406.41;;;14.69;86.58
79463;BME280;68931;47.286;18.756;2023-09-12T01:33:19;100409.56;;;14.75;86.74
79463;BME280;68931;47.286;18.756;2023-09-12T01:33:56;100405.47;;;14.71;86.61
79463;BME280;68931;47.286;18.756;2023-09-12T01:34:28;100413.78;;;14.77;86.54
79463;BME280;68931;47.286;18.756;2023-09-12T01:35:03;100408.22;;;14.69;86.54
79463;BME280;68931;47.286;18.756;2023-09-12T01:35:35;100405.56;;;14.69;86.58
79463;BME280;68931;47.286;18.756;2023-09-12T01:36:09;100405.34;;;14.72;86.58
79463;BME280;68931;47.286;18.756;2023-09-12T01:36:41;100414.22;;;14.71;86.64
79463;BME280;68931;47.286;18.756;2023-09-12T01:37:14;100377.44;;;14.46;86.68
79463;BME280;68931;47.286;18.756;2023-09-12T01:37:46;100417.22;;;14.66;86.95
79463;BME280;68931;47.286;18.756;2023-09-12T01:38:18;100416.38;;;14.66;86.61
79463;BME280;68931;47.286;18.756;2023-09-12T01:38:51;100416.38;;;14.66;86.89
79463;BME280;68931;47.286;18.756;2023-09-12T01:39:23;100411.56;;;14.60;86.82
79463;BME280;68931;47.286;18.756;2023-09-12T01:39:55;100409.88;;;14.59;86.75
79463;BME280;68931;47.286;18.756;2023-09-12T01:40:53;100423.47;;;14.65;87.26
79463;BME280;68931;47.286;18.756;2023-09-12T01:41:32;100401.13;;;14.58;87.54
79463;BME280;68931;47.286;18.756;2023-09-12T01:42:09;100414.81;;;14.63;87.01
79463;BME280;68931;47.286;18.756;2023-09-12T01:42:46;100418.91;;;14.67;87.02
79463;BME280;68931;47.286;18.756;2023-09-12T01:43:22;100409.63;;;14.62;86.78
79463;BME280;68931;47.286;18.756;2023-09-12T01:43:58;100414.69;;;14.65;86.53
79463;BME280;68931;47.286;18.756;2023-09-12T01:44:32;100421.41;;;14.69;86.79
79463;BME280;68931;47.286;18.756;2023-09-12T01:45:05;100424.91;;;14.69;86.67
79463;BME280;68931;47.286;18.756;2023-09-12T01:45:38;100423.34;;;14.67;86.80
79463;BME280;68931;47.286;18.756;2023-09-12T01:46:10;100413.75;;;14.66;86.39
79463;BME280;68931;47.286;18.756;2023-09-12T01:46:48;100417.34;;;14.65;86.53
79463;BME280;68931;47.286;18.756;2023-09-12T01:47:23;100426.94;;;14.66;86.60
79463;BME280;68931;47.286;18.756;2023-09-12T01:47:58;100420.94;;;14.64;86.29
79463;BME280;68931;47.286;18.756;2023-09-12T01:48:35;100427.91;;;14.65;86.40
79463;BME280;68931;47.286;18.756;2023-09-12T01:49:10;100420.19;;;14.62;86.68
79463;BME280;68931;47.286;18.756;2023-09-12T01:49:49;100421.03;;;14.62;86.93
79463;BME280;68931;47.286;18.756;2023-09-12T01:50:28;100429.06;;;14.61;86.57
79463;BME280;68931;47.286;18.756;2023-09-12T01:51:07;100410.59;;;14.50;86.62
79463;BME280;68931;47.286;18.756;2023-09-12T01:51:39;100425.72;;;14.59;86.80
79463;BME280;68931;47.286;18.756;2023-09-12T01:52:11;100425.72;;;14.59;87.10
79463;BME280;68931;47.286;18.756;2023-09-12T01:52:44;100425.00;;;14.57;87.32
79463;BME280;68931;47.286;18.756;2023-09-12T01:53:17;100419.94;;;14.54;87.17
79463;BME280;68931;47.286;18.756;2023-09-12T01:53:49;100427.00;;;14.53;87.31
79463;BME280;68931;47.286;18.756;2023-09-12T01:54:23;100410.06;;;14.45;87.17
79463;BME280;68931;47.286;18.756;2023-09-12T01:54:55;100411.16;;;14.42;87.12
79463;BME280;68931;47.286;18.756;2023-09-12T01:55:28;100426.91;;;14.55;87.18
79463;BME280;68931;47.286;18.756;2023-09-12T01:56:00;100418.50;;;14.50;87.18
79463;BME280;68931;47.286;18.756;2023-09-12T01:56:33;100422.69;;;14.52;87.36
79463;BME280;68931;47.286;18.756;2023-09-12T01:57:05;100413.44;;;14.47;87.13
79463;BME280;68931;47.286;18.756;2023-09-12T01:58:08;100427.75;;;14.55;87.08
79463;BME280;68931;47.286;18.756;2023-09-12T01:58:42;100429.44;;;14.56;86.95
79463;BME280;68931;47.286;18.756;2023-09-12T01:59:15;100427.00;;;14.53;86.86
79463;BME280;68931;47.286;18.756;2023-09-12T01:59:49;100436.13;;;14.49;86.44
79463;BME280;68931;47.286;18.756;2023-09-12T02:00:21;100427.59;;;14.46;86.38
79463;BME280;68931;47.286;18.756;2023-09-12T02:00:54;100428.78;;;14.42;86.73
79463;BME280;68931;47.286;18.756;2023-09-12T02:01:26;100426.16;;;14.42;87.04
79463;BME280;68931;47.286;18.756;2023-09-12T02:02:01;100388.34;;;14.17;86.97
79463;BME280;68931;47.286;18.756;2023-09-12T02:02:33;100417.19;;;14.31;87.23
79463;BME280;68931;47.286;18.756;2023-09-12T02:03:06;100430.88;;;14.37;87.06
79463;BME280;68931;47.286;18.756;2023-09-12T02:03:38;100415.00;;;14.25;87.05
79463;BME280;68931;47.286;18.756;2023-09-12T02:04:10;100428.34;;;14.35;87.12
79463;BME280;68931;47.286;18.756;2023-09-12T02:05:31;100432.28;;;14.29;87.20
79463;BME280;68931;47.286;18.756;2023-09-12T02:06:06;100433.03;;;14.31;87.50
79463;BME280;68931;47.286;18.756;2023-09-12T02:06:38;100434.72;;;14.32;87.81
79463;BME280;68931;47.286;18.756;2023-09-12T02:07:10;100421.94;;;14.26;87.86
79463;BME280;68931;47.286;18.756;2023-09-12T02:07:42;100433.03;;;14.31;87.96
79463;BME280;68931;47.286;18.756;2023-09-12T02:08:14;100424.47;;;14.28;87.87
79463;BME280;68931;47.286;18.756;2023-09-12T02:08:46;100433.78;;;14.34;87.59
79463;BME280;68931;47.286;18.756;2023-09-12T02:09:18;100423.88;;;14.24;88.15
79463;BME280;68931;47.286;18.756;2023-09-12T02:09:50;100431.13;;;14.34;87.92
79463;BME280;68931;47.286;18.756;2023-09-12T02:10:22;100431.44;;;14.29;87.82
79463;BME280;68931;47.286;18.756;2023-09-12T02:10:57;100435.56;;;14.33;87.52
79463;BME280;68931;47.286;18.756;2023-09-12T02:11:29;100429.66;;;14.29;87.93
79463;BME280;68931;47.286;18.756;2023-09-12T02:12:01;100426.38;;;14.26;87.73
79463;BME280;68931;47.286;18.756;2023-09-12T02:12:33;100422.41;;;14.20;87.73
79463;BME280;68931;47.286;18.756;2023-09-12T02:13:05;100437.78;;;14.26;87.56
79463;BME280;68931;47.286;18.756;2023-09-12T02:13:37;100421.94;;;14.15;87.62
79463;BME280;68931;47.286;18.756;2023-09-12T02:14:09;100419.03;;;14.18;87.39
79463;BME280;68931;47.286;18.756;2023-09-12T02:14:41;100424.94;;;14.22;87.53
79463;BME280;68931;47.286;18.756;2023-09-12T02:15:16;100422.53;;;14.19;87.60
79463;BME280;68931;47.286;18.756;2023-09-12T02:15:48;100437.09;;;14.24;87.54
79463;BME280;68931;47.286;18.756;2023-09-12T02:16:20;100433.25;;;14.28;87.50
79463;BME280;68931;47.286;18.756;2023-09-12T02:16:52;100436.72;;;14.29;87.91
79463;BME280;68931;47.286;18.756;2023-09-12T02:17:27;100438.53;;;14.28;87.91
79463;BME280;68931;47.286;18.756;2023-09-12T02:17:59;100428.19;;;14.25;87.73
79463;BME280;68931;47.286;18.756;2023-09-12T02:18:31;100438.31;;;14.31;88.08
79463;BME280;68931;47.286;18.756;2023-09-12T02:19:05;100433.13;;;14.30;88.09
79463;BME280;68931;47.286;18.756;2023-09-12T02:19:37;100436.94;;;14.26;87.89
79463;BME280;68931;47.286;18.756;2023-09-12T02:20:09;100417.72;;;14.13;88.01
79463;BME280;68931;47.286;18.756;2023-09-12T02:20:44;100438.03;;;14.23;88.13
79463;BME280;68931;47.286;18.756;2023-09-12T02:21:17;100434.44;;;14.24;88.02
79463;BME280;68931;47.286;18.756;2023-09-12T02:21:52;100435.41;;;14.23;88.07
79463;BME280;68931;47.286;18.756;2023-09-12T02:22:27;100419.16;;;14.17;87.91
79463;BME280;68931;47.286;18.756;2023-09-12T02:22:59;100433.34;;;14.27;87.57
79463;BME280;68931;47.286;18.756;2023-09-12T02:23:31;100418.94;;;14.20;87.27
79463;BME280;68931;47.286;18.756;2023-09-12T02:24:05;100410.84;;;14.10;87.61
79463;BME280;68931;47.286;18.756;2023-09-12T02:24:37;100434.31;;;14.26;87.41
79463;BME280;68931;47.286;18.756;2023-09-12T02:25:09;100397.16;;;14.05;87.39
79463;BME280;68931;47.286;18.756;2023-09-12T02:25:41;100419.16;;;14.17;87.58
79463;BME280;68931;47.286;18.756;2023-09-12T02:26:14;100436.00;;;14.27;87.77
79463;BME280;68931;47.286;18.756;2023-09-12T02:26:46;100434.94;;;14.29;87.92
79463;BME280;68931;47.286;18.756;2023-09-12T02:27:18;100428.81;;;14.29;87.72
79463;BME280;68931;47.286;18.756;2023-09-12T02:27:50;100429.44;;;14.32;87.39
79463;BME280;68931;47.286;18.756;2023-09-12T02:28:22;100433.63;;;14.35;87.53
79463;BME280;68931;47.286;18.756;2023-09-12T02:28:54;100425.84;;;14.34;87.52
79463;BME280;68931;47.286;18.756;2023-09-12T02:29:26;100426.06;;;14.30;87.17
79463;BME280;68931;47.286;18.756;2023-09-12T02:29:58;100429.94;;;14.38;87.36
79463;BME280;68931;47.286;18.756;2023-09-12T02:30:30;100422.47;;;14.31;87.36
79463;BME280;68931;47.286;18.756;2023-09-12T02:31:02;100426.66;;;14.34;87.01
79463;BME280;68931;47.286;18.756;2023-09-12T02:31:34;100432.56;;;14.38;87.09
79463;BME280;68931;47.286;18.756;2023-09-12T02:32:09;100429.19;;;14.36;87.54
79463;BME280;68931;47.286;18.756;2023-09-12T02:32:43;100429.00;;;14.39;87.09
79463;BME280;68931;47.286;18.756;2023-09-12T02:33:18;100411.41;;;14.26;87.15
79463;BME280;68931;47.286;18.756;2023-09-12T02:33:50;100424.16;;;14.32;87.28
79463;BME280;68931;47.286;18.756;2023-09-12T02:34:22;100423.91;;;14.36;87.18
79463;BME280;68931;47.286;18.756;2023-09-12T02:34:54;100430.03;;;14.36;87.05
79463;BME280;68931;47.286;18.756;2023-09-12T02:35:28;100424.16;;;14.32;87.34
79463;BME280;68931;47.286;18.756;2023-09-12T02:36:00;100430.16;;;14.35;87.44
79463;BME280;68931;47.286;18.756;2023-09-12T02:36:32;100421.00;;;14.27;87.33
79463;BME280;68931;47.286;18.756;2023-09-12T02:37:04;100430.50;;;14.30;87.29
79463;BME280;68931;47.286;18.756;2023-09-12T02:37:36;100430.59;;;14.28;87.45
79463;BME280;68931;47.286;18.756;2023-09-12T02:38:09;100428.72;;;14.30;87.59
79463;BME280;68931;47.286;18.756;2023-09-12T02:38:41;100426.91;;;14.31;87.79
79463;BME280;68931;47.286;18.756;2023-09-12T02:39:13;100407.53;;;14.19;87.90
79463;BME280;68931;47.286;18.756;2023-09-12T02:39:45;100409.00;;;14.23;87.45
79463;BME280;68931;47.286;18.756;2023-09-12T02:40:17;100423.53;;;14.29;87.55
79463;BME280;68931;47.286;18.756;2023-09-12T02:40:50;100420.91;;;14.29;87.55
79463;BME280;68931;47.286;18.756;2023-09-12T02:41:22;100425.13;;;14.31;87.43
79463;BME280;68931;47.286;18.756;2023-09-12T02:41:54;100429.44;;;14.32;87.46
79463;BME280;68931;47.286;18.756;2023-09-12T02:42:26;100426.66;;;14.34;87.26
79463;BME280;68931;47.286;18.756;2023-09-12T02:42:58;100415.72;;;14.27;87.20
79463;BME280;68931;47.286;18.756;2023-09-12T02:43:30;100392.06;;;14.15;87.47
79463;BME280;68931;47.286;18.756;2023-09-12T02:44:02;100421.53;;;14.32;86.94
79463;BME280;68931;47.286;18.756;2023-09-12T02:44:34;100416.34;;;14.31;87.10
79463;BME280;68931;47.286;18.756;2023-09-12T02:45:06;100416.34;;;14.31;87.22
79463;BME280;68931;47.286;18.756;2023-09-12T02:45:39;100424.88;;;14.35;87.28
79463;BME280;68931;47.286;18.756;2023-09-12T02:46:10;100416.25;;;14.32;87.21
79463;BME280;68931;47.286;18.756;2023-09-12T02:46:42;100424.16;;;14.32;87.41
79463;BME280;68931;47.286;18.756;2023-09-12T02:47:14;100423.31;;;14.32;87.02
79463;BME280;68931;47.286;18.756;2023-09-12T02:47:49;100424.75;;;14.36;86.71
79463;BME280;68931;47.286;18.756;2023-09-12T02:48:23;100423.91;;;14.36;86.69
79463;BME280;68931;47.286;18.756;2023-09-12T02:48:55;100411.28;;;14.28;86.59
79463;BME280;68931;47.286;18.756;2023-09-12T02:49:30;100418.63;;;14.36;86.54
79463;BME280;68931;47.286;18.756;2023-09-12T02:50:02;100417.94;;;14.34;86.51
79463;BME280;68931;47.286;18.756;2023-09-12T02:50:34;100417.19;;;14.31;85.90
79463;BME280;68931;47.286;18.756;2023-09-12T02:51:06;100427.50;;;14.35;86.57
79463;BME280;68931;47.286;18.756;2023-09-12T02:51:38;100392.16;;;14.13;86.83
79463;BME280;68931;47.286;18.756;2023-09-12T02:52:10;100425.44;;;14.27;86.79
79463;BME280;68931;47.286;18.756;2023-09-12T02:52:43;100418.09;;;14.19;86.93
79463;BME280;68931;47.286;18.756;2023-09-12T02:53:15;100394.44;;;14.07;86.35
79463;BME280;68931;47.286;18.756;2023-09-12T02:53:47;100409.44;;;14.17;86.71
79463;BME280;68931;47.286;18.756;2023-09-12T02:54:19;100412.81;;;14.19;86.80
79463;BME280;68931;47.286;18.756;2023-09-12T02:54:51;100413.44;;;14.23;86.91
79463;BME280;68931;47.286;18.756;2023-09-12T02:55:23;100419.31;;;14.26;86.79
79463;BME280;68931;47.286;18.756;2023-09-12T02:55:55;100415.97;;;14.24;86.86
79463;BME280;68931;47.286;18.756;2023-09-12T02:56:27;100401.41;;;14.19;86.88
79463;BME280;68931;47.286;18.756;2023-09-12T02:57:02;100417.63;;;14.25;86.78
79463;BME280;68931;47.286;18.756;2023-09-12T02:57:34;100421.34;;;14.23;86.56
79463;BME280;68931;47.286;18.756;2023-09-12T02:58:06;100426.63;;;14.23;86.44
79463;BME280;68931;47.286;18.756;2023-09-12T02:58:38;100423.38;;;14.19;86.98
79463;BME280;68931;47.286;18.756;2023-09-12T02:59:10;100414.97;;;14.14;86.88
79463;BME280;68931;47.286;18.756;2023-09-12T02:59:42;100418.44;;;14.15;86.53
79463;BME280;68931;47.286;18.756;2023-09-12T03:00:14;100412.44;;;14.13;86.89
79463;BME280;68931;47.286;18.756;2023-09-12T03:00:46;100422.53;;;14.19;86.92